Terminal Aerodrome Forecast
Issued by NWS

Home | Current Version | Previous Version | Text Only | Print | Product List | Glossary On
Versions: 1 2 3 4 5 6 7 8 9 10 11 12 13 14 15 16 17 18
000
FTUS43 KIND 031302 AAA
TAFHUF
TAF AMD
KHUF 031302Z 0313/0412 23004KT 6SM BR FEW004
     FM031400 26007KT P6SM SCT030 SCT100 SCT250
     FM040100 23003KT P6SM SCT250
     FM040700 00000KT 4SM BR SCT080 BKN250=

USA.gov is the U.S. government's official web portal to all federal, state and local government web resources and services.